createdAt,value
2018-08-18T00:00:23.000Z,31.1
2018-08-18T00:02:23.000Z,31
2018-08-18T00:04:23.000Z,30.9
2018-08-18T00:06:23.000Z,30.9
2018-08-18T00:07:23.000Z,30.9
2018-08-18T00:09:23.000Z,31
2018-08-18T00:11:23.000Z,30.9
2018-08-18T00:12:23.000Z,31
2018-08-18T00:13:23.000Z,31
2018-08-18T00:15:23.000Z,31.1
2018-08-18T00:16:23.000Z,31.1
2018-08-18T00:18:23.000Z,31.1
2018-08-18T00:20:23.000Z,31.1
2018-08-18T00:22:23.000Z,31
2018-08-18T00:23:23.000Z,30.9
2018-08-18T00:25:23.000Z,31
2018-08-18T00:27:23.000Z,30.9
2018-08-18T00:28:23.000Z,30.9
2018-08-18T00:30:23.000Z,31
2018-08-18T00:32:23.000Z,31
2018-08-18T00:34:23.000Z,30.9
2018-08-18T00:36:23.000Z,30.9
2018-08-18T00:37:23.000Z,30.9
2018-08-18T00:39:08.000Z,31
2018-08-18T00:40:23.000Z,30.9
2018-08-18T00:42:23.000Z,30.9
2018-08-18T00:43:23.000Z,30.9
2018-08-18T00:44:23.000Z,30.9
2018-08-18T00:46:23.000Z,30.9
2018-08-18T00:48:23.000Z,30.8
2018-08-18T00:50:23.000Z,30.8
2018-08-18T00:52:23.000Z,30.8
2018-08-18T00:53:23.000Z,30.8
2018-08-18T00:54:23.000Z,30.9
2018-08-18T00:56:23.000Z,30.9
2018-08-18T00:57:23.000Z,31
2018-08-18T00:59:23.000Z,30.9
2018-08-18T01:00:23.000Z,30.9
2018-08-18T01:01:23.000Z,31
2018-08-18T01:02:23.000Z,31
2018-08-18T01:04:08.000Z,31.1
2018-08-18T01:05:23.000Z,31.1
2018-08-18T01:06:23.000Z,31.1
2018-08-18T01:07:23.000Z,31.1
2018-08-18T01:09:23.000Z,31.1
2018-08-18T01:10:23.000Z,31.1
2018-08-18T01:11:23.000Z,31.1
2018-08-18T01:13:23.000Z,31.1
2018-08-18T01:14:23.000Z,31.1
2018-08-18T01:16:08.000Z,31.1
2018-08-18T01:17:23.000Z,31.1
2018-08-18T01:18:23.000Z,31.1
2018-08-18T01:20:23.000Z,31
2018-08-18T01:22:22.000Z,31
2018-08-18T01:23:22.000Z,31
2018-08-18T01:25:22.000Z,31
2018-08-18T01:26:22.000Z,31
2018-08-18T01:27:23.000Z,31
2018-08-18T01:29:22.000Z,31
2018-08-18T01:31:22.000Z,31
2018-08-18T01:32:22.000Z,31
2018-08-18T01:34:22.000Z,31
2018-08-18T01:35:22.000Z,31
2018-08-18T01:37:22.000Z,31
2018-08-18T01:38:22.000Z,31
2018-08-18T01:39:22.000Z,31.1
2018-08-18T01:40:22.000Z,31.1
2018-08-18T01:41:22.000Z,31.2
2018-08-18T01:43:22.000Z,31.2
2018-08-18T01:45:22.000Z,31.1
2018-08-18T01:46:22.000Z,31.1
2018-08-18T01:48:07.000Z,31.1
2018-08-18T01:49:22.000Z,31
2018-08-18T01:50:22.000Z,31
2018-08-18T01:52:22.000Z,31
2018-08-18T01:54:22.000Z,31
2018-08-18T01:56:22.000Z,30.9
2018-08-18T01:57:22.000Z,30.9
2018-08-18T01:58:22.000Z,31
2018-08-18T02:00:07.000Z,31
2018-08-18T02:01:22.000Z,30.9
2018-08-18T02:03:22.000Z,30.9
2018-08-18T02:05:22.000Z,30.8
2018-08-18T02:06:22.000Z,30.8
2018-08-18T02:07:22.000Z,30.8
2018-08-18T02:08:22.000Z,30.9
2018-08-18T02:10:22.000Z,30.9
2018-08-18T02:12:22.000Z,30.9
2018-08-18T02:13:22.000Z,30.9
2018-08-18T02:15:23.000Z,30.9
2018-08-18T02:17:22.000Z,30.8
2018-08-18T02:19:22.000Z,30.8
2018-08-18T02:21:22.000Z,30.8
2018-08-18T02:22:23.000Z,30.8
2018-08-18T02:24:22.000Z,30.8
2018-08-18T02:26:23.000Z,30.8
2018-08-18T02:28:23.000Z,30.7
2018-08-18T02:30:23.000Z,30.7
2018-08-18T02:32:23.000Z,30.7
2018-08-18T02:34:23.000Z,30.6
2018-08-18T02:36:08.000Z,30.6
2018-08-18T02:37:23.000Z,30.5
2018-08-18T02:39:23.000Z,30.6
2018-08-18T02:40:23.000Z,30.6
2018-08-18T02:42:23.000Z,30.7
2018-08-18T02:43:23.000Z,30.8
2018-08-18T02:45:23.000Z,30.8
2018-08-18T02:47:23.000Z,30.8
2018-08-18T02:49:23.000Z,30.7
2018-08-18T02:50:23.000Z,30.7
2018-08-18T02:52:23.000Z,30.7
2018-08-18T02:53:23.000Z,30.7
2018-08-18T02:54:23.000Z,30.8
2018-08-18T02:56:23.000Z,30.8
2018-08-18T02:58:23.000Z,30.7
2018-08-18T03:00:23.000Z,30.7
2018-08-18T03:02:23.000Z,30.6
2018-08-18T03:03:23.000Z,30.6
2018-08-18T03:05:23.000Z,30.6
2018-08-18T03:06:23.000Z,30.6
2018-08-18T03:08:23.000Z,30.6
2018-08-18T03:09:23.000Z,30.6
2018-08-18T03:10:23.000Z,30.7
2018-08-18T03:11:23.000Z,30.8
2018-08-18T03:13:23.000Z,30.9
2018-08-18T03:15:23.000Z,30.9
2018-08-18T03:16:23.000Z,30.9
2018-08-18T03:17:23.000Z,30.9
2018-08-18T03:18:23.000Z,30.9
2018-08-18T03:20:08.000Z,31
2018-08-18T03:21:23.000Z,30.9
2018-08-18T03:23:23.000Z,30.9
2018-08-18T03:24:23.000Z,30.9
2018-08-18T03:25:23.000Z,30.9
2018-08-18T03:26:23.000Z,31
2018-08-18T03:28:23.000Z,31
2018-08-18T03:30:23.000Z,30.9
2018-08-18T03:32:23.000Z,30.8
2018-08-18T03:34:23.000Z,30.7
2018-08-18T03:35:23.000Z,30.7
2018-08-18T03:36:23.000Z,30.8
2018-08-18T03:38:23.000Z,30.8
2018-08-18T03:40:23.000Z,30.7
2018-08-18T03:41:23.000Z,30.7
2018-08-18T03:43:23.000Z,30.8
2018-08-18T03:44:23.000Z,30.8
2018-08-18T03:46:23.000Z,30.9
2018-08-18T03:47:23.000Z,30.9
2018-08-18T03:48:23.000Z,30.9
2018-08-18T03:50:23.000Z,31
2018-08-18T03:52:23.000Z,30.9
2018-08-18T03:53:23.000Z,30.9
2018-08-18T03:54:23.000Z,31
2018-08-18T03:55:23.000Z,31
2018-08-18T03:57:23.000Z,31
2018-08-18T03:58:23.000Z,31
2018-08-18T04:00:08.000Z,31
2018-08-18T04:01:23.000Z,30.9
2018-08-18T04:02:23.000Z,30.9
2018-08-18T04:03:23.000Z,31
2018-08-18T04:05:23.000Z,30.9
2018-08-18T04:06:23.000Z,30.9
2018-08-18T04:07:23.000Z,31
2018-08-18T04:09:23.000Z,31
2018-08-18T04:10:23.000Z,31
2018-08-18T04:12:23.000Z,30.9
2018-08-18T04:14:23.000Z,30.9
2018-08-18T04:16:23.000Z,30.8
2018-08-18T04:17:23.000Z,30.8
2018-08-18T04:19:23.000Z,30.8
2018-08-18T04:21:23.000Z,30.8
2018-08-18T04:22:23.000Z,30.8
2018-08-18T04:24:23.000Z,30.8
2018-08-18T04:26:23.000Z,30.8
2018-08-18T04:27:23.000Z,30.8
2018-08-18T04:29:23.000Z,30.8
2018-08-18T04:30:23.000Z,30.8
2018-08-18T04:31:23.000Z,30.9
2018-08-18T04:33:22.000Z,31
2018-08-18T04:34:22.000Z,31
2018-08-18T04:36:22.000Z,30.9
2018-08-18T04:38:22.000Z,30.9
2018-08-18T04:39:22.000Z,30.8
2018-08-18T04:41:22.000Z,30.9
2018-08-18T04:43:22.000Z,30.8
2018-08-18T04:44:22.000Z,30.9
2018-08-18T04:46:22.000Z,30.9
2018-08-18T04:47:22.000Z,30.9
2018-08-18T04:48:22.000Z,30.9
2018-08-18T04:49:22.000Z,30.9
2018-08-18T04:51:22.000Z,31
2018-08-18T04:53:22.000Z,31
2018-08-18T04:55:22.000Z,30.9
2018-08-18T04:57:22.000Z,30.8
2018-08-18T04:59:22.000Z,30.7
2018-08-18T05:01:22.000Z,30.6
2018-08-18T05:02:22.000Z,30.6
2018-08-18T05:03:22.000Z,30.7
2018-08-18T05:05:22.000Z,30.8
2018-08-18T05:07:22.000Z,30.8
2018-08-18T05:08:22.000Z,30.8
2018-08-18T05:09:22.000Z,30.8
2018-08-18T05:10:22.000Z,30.9
2018-08-18T05:12:22.000Z,31
2018-08-18T05:14:22.000Z,31
2018-08-18T05:16:22.000Z,31
2018-08-18T05:17:22.000Z,31
2018-08-18T05:18:22.000Z,31
2018-08-18T05:19:22.000Z,31
2018-08-18T05:21:07.000Z,31.1
2018-08-18T05:22:22.000Z,31
2018-08-18T05:23:22.000Z,31.1
2018-08-18T05:24:22.000Z,31.1
2018-08-18T05:26:22.000Z,31
2018-08-18T05:27:22.000Z,31
2018-08-18T05:28:22.000Z,31
2018-08-18T05:30:22.000Z,31
2018-08-18T05:32:22.000Z,31
2018-08-18T05:33:22.000Z,31
2018-08-18T05:34:22.000Z,31.1
2018-08-18T05:36:23.000Z,31.1
2018-08-18T05:38:23.000Z,31.1
2018-08-18T05:39:23.000Z,31.1
2018-08-18T05:41:23.000Z,31.2
2018-08-18T05:42:23.000Z,31.2
2018-08-18T05:44:23.000Z,31.2
2018-08-18T05:46:23.000Z,31.2
2018-08-18T05:47:23.000Z,31.2
2018-08-18T05:48:23.000Z,31.2
2018-08-18T05:50:23.000Z,31.1
2018-08-18T05:52:23.000Z,31.1
2018-08-18T05:54:23.000Z,31
2018-08-18T05:55:23.000Z,31
2018-08-18T05:57:23.000Z,31
2018-08-18T05:58:23.000Z,31.1
2018-08-18T06:00:23.000Z,31.1
2018-08-18T06:02:23.000Z,31.1
2018-08-18T06:03:23.000Z,31.1
2018-08-18T06:05:23.000Z,31.1
2018-08-18T06:06:23.000Z,31.1
2018-08-18T06:08:23.000Z,31.2
2018-08-18T06:10:23.000Z,31.2
2018-08-18T06:11:23.000Z,31.3
2018-08-18T06:12:23.000Z,31.3
2018-08-18T06:14:23.000Z,31.3
2018-08-18T06:15:23.000Z,31.4
2018-08-18T06:17:23.000Z,31.4
2018-08-18T06:19:23.000Z,31.4
2018-08-18T06:21:23.000Z,31.4
2018-08-18T06:22:23.000Z,31.4
2018-08-18T06:23:23.000Z,31.5
2018-08-18T06:25:23.000Z,31.6
2018-08-18T06:26:23.000Z,31.6
2018-08-18T06:28:23.000Z,31.7
2018-08-18T06:30:23.000Z,31.7
2018-08-18T06:31:23.000Z,31.7
2018-08-18T06:33:23.000Z,31.7
2018-08-18T06:35:23.000Z,31.6
2018-08-18T06:37:23.000Z,31.6
2018-08-18T06:38:23.000Z,31.6
2018-08-18T06:40:23.000Z,31.7
2018-08-18T06:42:23.000Z,31.7
2018-08-18T06:43:23.000Z,31.7
2018-08-18T06:45:23.000Z,31.8
2018-08-18T06:47:23.000Z,31.9
2018-08-18T06:49:23.000Z,31.9
2018-08-18T06:50:23.000Z,31.9
2018-08-18T06:51:23.000Z,32
2018-08-18T06:52:23.000Z,32.1
2018-08-18T06:54:23.000Z,32.1
2018-08-18T06:55:23.000Z,32.1
2018-08-18T06:56:23.000Z,32.2
2018-08-18T06:58:07.000Z,32.3
2018-08-18T06:59:23.000Z,32.3
2018-08-18T07:00:23.000Z,32.3
2018-08-18T07:01:23.000Z,32.4
2018-08-18T07:02:23.000Z,32.4
2018-08-18T07:03:23.000Z,32.5
2018-08-18T07:05:07.000Z,32.5
2018-08-18T07:06:23.000Z,32.4
2018-08-18T07:08:23.000Z,32.4
2018-08-18T07:09:23.000Z,32.4
2018-08-18T07:11:23.000Z,32.5
2018-08-18T07:13:23.000Z,32.4
2018-08-18T07:14:23.000Z,32.4
2018-08-18T07:15:23.000Z,32.3
2018-08-18T07:16:23.000Z,32.3
2018-08-18T07:18:23.000Z,32.3
2018-08-18T07:20:23.000Z,32.2
2018-08-18T07:22:23.000Z,32.1
2018-08-18T07:23:23.000Z,32.1
2018-08-18T07:24:23.000Z,32.1
2018-08-18T07:26:23.000Z,32
2018-08-18T07:28:23.000Z,32
2018-08-18T07:29:23.000Z,31.9
2018-08-18T07:30:23.000Z,31.9
2018-08-18T07:32:07.000Z,32
2018-08-18T07:33:23.000Z,31.9
2018-08-18T07:34:23.000Z,31.9
2018-08-18T07:36:23.000Z,31.9
2018-08-18T07:38:23.000Z,31.9
2018-08-18T07:39:23.000Z,31.9
2018-08-18T07:41:23.000Z,31.9
2018-08-18T07:43:23.000Z,31.9
2018-08-18T07:44:23.000Z,31.9
2018-08-18T07:46:23.000Z,31.9
2018-08-18T07:47:23.000Z,31.9
2018-08-18T07:49:23.000Z,31.9
2018-08-18T07:50:23.000Z,31.9
2018-08-18T07:52:23.000Z,31.9
2018-08-18T07:54:08.000Z,31.9
2018-08-18T07:55:23.000Z,31.8
2018-08-18T07:56:23.000Z,31.8
2018-08-18T07:57:23.000Z,31.9
2018-08-18T07:59:23.000Z,32
2018-08-18T08:00:23.000Z,32
2018-08-18T08:02:23.000Z,31.9
2018-08-18T08:04:23.000Z,31.9
2018-08-18T08:05:23.000Z,31.9
2018-08-18T08:07:08.000Z,31.9
2018-08-18T08:08:23.000Z,31.9
2018-08-18T08:09:23.000Z,31.9
2018-08-18T08:11:23.000Z,31.9
2018-08-18T08:13:23.000Z,31.8
2018-08-18T08:14:23.000Z,31.8
2018-08-18T08:15:23.000Z,31.8
2018-08-18T08:17:23.000Z,31.9
2018-08-18T08:18:23.000Z,31.9
2018-08-18T08:19:23.000Z,31.9
2018-08-18T08:21:23.000Z,31.9
2018-08-18T08:22:23.000Z,31.9
2018-08-18T08:23:23.000Z,31.9
2018-08-18T08:25:23.000Z,32
2018-08-18T08:26:23.000Z,32
2018-08-18T08:28:23.000Z,32
2018-08-18T08:29:23.000Z,32
2018-08-18T08:31:23.000Z,31.9
2018-08-18T08:33:23.000Z,31.9
2018-08-18T08:34:23.000Z,31.8
2018-08-18T08:36:23.000Z,31.8
2018-08-18T08:38:23.000Z,31.8
2018-08-18T08:40:23.000Z,31.8
2018-08-18T08:41:23.000Z,31.8
2018-08-18T08:43:23.000Z,31.8
2018-08-18T08:44:23.000Z,31.8
2018-08-18T08:46:23.000Z,31.8
2018-08-18T08:48:08.000Z,31.8
2018-08-18T08:49:23.000Z,31.8
2018-08-18T08:51:23.000Z,31.8
2018-08-18T08:53:23.000Z,31.7
2018-08-18T08:54:23.000Z,31.7
2018-08-18T08:56:23.000Z,31.7
2018-08-18T08:58:23.000Z,31.6
2018-08-18T09:00:23.000Z,31.6
2018-08-18T09:02:23.000Z,31.6
2018-08-18T09:03:23.000Z,31.6
2018-08-18T09:04:23.000Z,31.7
2018-08-18T09:06:23.000Z,31.7
2018-08-18T09:07:23.000Z,31.7
2018-08-18T09:09:08.000Z,31.7
2018-08-18T09:10:23.000Z,31.7
2018-08-18T09:12:23.000Z,31.7
2018-08-18T09:13:23.000Z,31.7
2018-08-18T09:15:23.000Z,31.7
2018-08-18T09:17:23.000Z,31.7
2018-08-18T09:18:23.000Z,31.7
2018-08-18T09:20:23.000Z,31.8
2018-08-18T09:22:23.000Z,31.8
2018-08-18T09:24:23.000Z,31.7
2018-08-18T09:26:23.000Z,31.7
2018-08-18T09:28:23.000Z,31.6
2018-08-18T09:30:23.000Z,31.6
2018-08-18T09:32:23.000Z,31.5
2018-08-18T09:33:23.000Z,31.6
2018-08-18T09:34:23.000Z,31.6
2018-08-18T09:36:08.000Z,31.8
2018-08-18T09:37:23.000Z,31.8
2018-08-18T09:38:23.000Z,31.8
2018-08-18T09:40:23.000Z,31.9
2018-08-18T09:42:23.000Z,31.9
2018-08-18T09:43:23.000Z,31.9
2018-08-18T09:45:23.000Z,32
2018-08-18T09:46:23.000Z,32
2018-08-18T09:48:23.000Z,32
2018-08-18T09:50:08.000Z,32
2018-08-18T09:51:23.000Z,32
2018-08-18T09:53:23.000Z,32
2018-08-18T09:55:08.000Z,31.9
2018-08-18T09:56:23.000Z,31.9
2018-08-18T09:58:23.000Z,31.8
2018-08-18T10:00:23.000Z,31.8
2018-08-18T10:01:23.000Z,31.8
2018-08-18T10:03:23.000Z,31.9
2018-08-18T10:04:23.000Z,31.9
2018-08-18T10:06:23.000Z,32
2018-08-18T10:08:23.000Z,32
2018-08-18T10:09:23.000Z,32
2018-08-18T10:10:23.000Z,32
2018-08-18T10:11:23.000Z,32.1
2018-08-18T10:13:23.000Z,32.1
2018-08-18T10:14:23.000Z,32.1
2018-08-18T10:15:23.000Z,32.1
2018-08-18T10:17:23.000Z,32.2
2018-08-18T10:18:23.000Z,32.2
2018-08-18T10:19:23.000Z,32.2
2018-08-18T10:21:23.000Z,32.2
2018-08-18T10:22:23.000Z,32.2
2018-08-18T10:23:23.000Z,32.3
2018-08-18T10:25:23.000Z,32.3
2018-08-18T10:26:23.000Z,32.2
2018-08-18T10:28:23.000Z,32.2
2018-08-18T10:30:23.000Z,32.1
2018-08-18T10:32:23.000Z,32
2018-08-18T10:34:23.000Z,31.9
2018-08-18T10:36:23.000Z,31.9
2018-08-18T10:37:23.000Z,31.9
2018-08-18T10:39:23.000Z,31.9
2018-08-18T10:41:23.000Z,31.9
2018-08-18T10:42:23.000Z,31.9
2018-08-18T10:44:23.000Z,32
2018-08-18T10:45:23.000Z,32
2018-08-18T10:47:23.000Z,32
2018-08-18T10:49:23.000Z,32
2018-08-18T10:50:23.000Z,32
2018-08-18T10:52:23.000Z,32
2018-08-18T10:53:23.000Z,32
2018-08-18T10:55:23.000Z,32.1
2018-08-18T10:57:23.000Z,32.1
2018-08-18T10:58:23.000Z,32.1
2018-08-18T11:00:08.000Z,32.2
2018-08-18T11:01:23.000Z,32.1
2018-08-18T11:02:23.000Z,32.2
2018-08-18T11:04:23.000Z,32.2
2018-08-18T11:06:23.000Z,32.1
2018-08-18T11:07:23.000Z,32.1
2018-08-18T11:09:23.000Z,32.1
2018-08-18T11:11:23.000Z,32.1
2018-08-18T11:15:09.000Z,31.7
2018-08-18T11:16:09.000Z,31.7
2018-08-18T11:17:09.000Z,31.7
2018-08-18T11:19:09.000Z,31.8
2018-08-18T11:21:09.000Z,31.9
2018-08-18T11:23:09.000Z,32
2018-08-18T11:26:55.000Z,31.6
2018-08-18T11:28:55.000Z,31.6
2018-08-18T11:30:55.000Z,31.7
2018-08-18T11:32:55.000Z,31.7
2018-08-18T11:33:55.000Z,31.8
2018-08-18T11:35:39.000Z,31.9
2018-08-18T11:36:55.000Z,31.9
2018-08-18T11:37:55.000Z,32
2018-08-18T11:38:55.000Z,32
2018-08-18T11:40:55.000Z,32.1
2018-08-18T11:41:55.000Z,32.1
2018-08-18T11:42:55.000Z,32.2
2018-08-18T11:44:55.000Z,32.2
2018-08-18T11:45:55.000Z,32.3
2018-08-18T11:47:39.000Z,32.3
2018-08-18T11:48:55.000Z,32.3
2018-08-18T11:49:55.000Z,32.3
2018-08-18T11:51:55.000Z,32.2
2018-08-18T11:52:55.000Z,32.2
2018-08-18T11:54:55.000Z,32.2
2018-08-18T11:56:55.000Z,32.2
2018-08-18T11:58:40.000Z,32.2
2018-08-18T11:59:55.000Z,32.2
2018-08-18T12:00:55.000Z,32.2
2018-08-18T12:02:55.000Z,32.2
2018-08-18T12:04:55.000Z,32.2
2018-08-18T12:06:40.000Z,32.2
2018-08-18T12:07:55.000Z,32.2
2018-08-18T12:08:55.000Z,32.2
2018-08-18T12:09:55.000Z,32.2
2018-08-18T12:11:55.000Z,32.3
2018-08-18T12:12:55.000Z,32.3
2018-08-18T12:14:55.000Z,32.3
2018-08-18T12:15:55.000Z,32.3
2018-08-18T12:17:55.000Z,32.3
2018-08-18T12:19:55.000Z,32.3
2018-08-18T12:21:55.000Z,32.2
2018-08-18T12:22:55.000Z,32.1
2018-08-18T12:23:55.000Z,32.2
2018-08-18T12:25:55.000Z,32.2
2018-08-18T12:26:55.000Z,32.3
2018-08-18T12:28:55.000Z,32.3
2018-08-18T12:29:55.000Z,32.3
2018-08-18T12:31:55.000Z,32.3
2018-08-18T12:33:40.000Z,32.2
2018-08-18T12:34:55.000Z,32.2
2018-08-18T12:35:55.000Z,32.2
2018-08-18T12:37:55.000Z,32.3
2018-08-18T12:39:55.000Z,32.2
2018-08-18T12:40:55.000Z,32.2
2018-08-18T12:42:55.000Z,32.3
2018-08-18T12:44:55.000Z,32.3
2018-08-18T12:45:55.000Z,32.3
2018-08-18T12:47:55.000Z,32.3
2018-08-18T12:48:55.000Z,32.3
2018-08-18T12:50:55.000Z,32.4
2018-08-18T12:52:55.000Z,32.3
2018-08-18T12:54:40.000Z,32.3
2018-08-18T12:55:55.000Z,32.2
2018-08-18T12:56:55.000Z,32.3
2018-08-18T12:57:55.000Z,32.3
2018-08-18T12:59:55.000Z,32.3
2018-08-18T13:00:55.000Z,32.3
2018-08-18T13:02:55.000Z,32.3
2018-08-18T13:04:55.000Z,32.3
2018-08-18T13:06:55.000Z,32.3
2018-08-18T13:08:55.000Z,32.3
2018-08-18T13:09:55.000Z,32.3
2018-08-18T13:11:39.000Z,32.4
2018-08-18T13:12:55.000Z,32.4
2018-08-18T13:13:55.000Z,32.4
2018-08-18T13:15:55.000Z,32.4
2018-08-18T13:16:55.000Z,32.4
2018-08-18T13:18:55.000Z,32.4
2018-08-18T13:19:55.000Z,32.5
2018-08-18T13:21:39.000Z,32.5
2018-08-18T13:22:55.000Z,32.5
2018-08-18T13:23:55.000Z,32.5
2018-08-18T13:25:55.000Z,32.8
2018-08-18T13:26:55.000Z,33.1
2018-08-18T13:28:55.000Z,34.5
2018-08-18T13:30:55.000Z,36
2018-08-18T13:32:55.000Z,37
2018-08-18T13:34:55.000Z,37.2
2018-08-18T13:35:55.000Z,37
2018-08-18T13:37:55.000Z,36.1
2018-08-18T13:38:55.000Z,35.7
2018-08-18T13:40:55.000Z,34.9
2018-08-18T13:41:55.000Z,34.6
2018-08-18T13:42:55.000Z,34.3
2018-08-18T13:44:55.000Z,34
2018-08-18T13:46:55.000Z,33.7
2018-08-18T13:48:55.000Z,33.5
2018-08-18T13:49:55.000Z,33.4
2018-08-18T13:50:55.000Z,33.3
2018-08-18T13:52:55.000Z,33.3
2018-08-18T13:54:55.000Z,33.2
2018-08-18T13:55:55.000Z,33.1
2018-08-18T13:56:55.000Z,33.1
2018-08-18T13:57:55.000Z,33.1
2018-08-18T13:59:39.000Z,33.2
2018-08-18T14:00:55.000Z,33.1
2018-08-18T14:02:39.000Z,33
2018-08-18T14:03:55.000Z,32.9
2018-08-18T14:05:55.000Z,32.8
2018-08-18T14:07:55.000Z,32.7
2018-08-18T14:09:55.000Z,32.6
2018-08-18T14:11:40.000Z,32.6
2018-08-18T14:12:55.000Z,32.6
2018-08-18T14:14:55.000Z,32.6
2018-08-18T14:15:55.000Z,32.6
2018-08-18T14:17:55.000Z,32.7
2018-08-18T14:19:55.000Z,32.6
2018-08-18T14:21:55.000Z,32.5
2018-08-18T14:22:55.000Z,32.5
2018-08-18T14:23:55.000Z,32.5
2018-08-18T14:25:40.000Z,32.6
2018-08-18T14:26:55.000Z,32.5
2018-08-18T14:28:55.000Z,32.5
2018-08-18T14:30:55.000Z,32.5
2018-08-18T14:32:55.000Z,32.5
2018-08-18T14:33:55.000Z,32.5
2018-08-18T14:35:55.000Z,32.5
2018-08-18T14:36:55.000Z,32.5
2018-08-18T14:38:55.000Z,32.6
2018-08-18T14:40:55.000Z,32.5
2018-08-18T14:41:55.000Z,32.5
2018-08-18T14:43:55.000Z,32.5
2018-08-18T14:45:55.000Z,32.4
2018-08-18T14:47:55.000Z,32.3
2018-08-18T14:49:55.000Z,32.3
2018-08-18T14:50:55.000Z,32.3
2018-08-18T14:52:55.000Z,32.4
2018-08-18T14:54:55.000Z,32.4
2018-08-18T14:56:55.000Z,32.3
2018-08-18T14:58:55.000Z,32.2
2018-08-18T14:59:55.000Z,32.2
2018-08-18T15:01:55.000Z,32.3
2018-08-18T15:03:55.000Z,32.3
2018-08-18T15:05:55.000Z,32.3
2018-08-18T15:07:55.000Z,32.3
2018-08-18T15:08:55.000Z,32.3
2018-08-18T15:10:40.000Z,32.4
2018-08-18T15:11:55.000Z,32.4
2018-08-18T15:13:40.000Z,32.4
2018-08-18T15:14:55.000Z,32.4
2018-08-18T15:15:55.000Z,32.4
2018-08-18T15:16:55.000Z,32.5
2018-08-18T15:20:41.000Z,32.1
2018-08-18T15:21:41.000Z,32.1
2018-08-18T15:23:41.000Z,32.1
2018-08-18T15:25:41.000Z,32.1
2018-08-18T15:27:41.000Z,32.1
2018-08-18T15:28:41.000Z,32.2
2018-08-18T15:29:41.000Z,32.2
2018-08-18T15:31:41.000Z,32.4
2018-08-18T15:32:41.000Z,32.4
2018-08-18T15:34:41.000Z,32.5
2018-08-18T15:36:41.000Z,32.4
2018-08-18T15:38:41.000Z,32.3
2018-08-18T15:39:41.000Z,32.3
2018-08-18T15:40:41.000Z,32.4
2018-08-18T15:42:41.000Z,32.5
2018-08-18T15:43:41.000Z,32.5
2018-08-18T15:45:41.000Z,32.5
2018-08-18T15:47:41.000Z,32.4
2018-08-18T15:49:41.000Z,32.4
2018-08-18T15:50:41.000Z,32.4
2018-08-18T15:51:41.000Z,32.4
2018-08-18T15:52:41.000Z,32.5
2018-08-18T15:53:41.000Z,32.5
2018-08-18T15:54:41.000Z,32.6
2018-08-18T15:56:41.000Z,32.6
2018-08-18T15:58:41.000Z,32.5
2018-08-18T15:59:41.000Z,32.5
2018-08-18T16:00:41.000Z,32.5
2018-08-18T16:02:41.000Z,32.5
2018-08-18T16:03:41.000Z,32.6
2018-08-18T16:05:26.000Z,32.6
2018-08-18T16:06:41.000Z,32.5
2018-08-18T16:07:41.000Z,32.5
2018-08-18T16:08:41.000Z,32.5
2018-08-18T16:09:41.000Z,32.5
2018-08-18T16:11:41.000Z,32.6
2018-08-18T16:12:41.000Z,32.6
2018-08-18T16:13:41.000Z,32.6
2018-08-18T16:15:41.000Z,32.5
2018-08-18T16:17:41.000Z,32.3
2018-08-18T16:18:41.000Z,32.3
2018-08-18T16:19:41.000Z,32.3
2018-08-18T16:21:41.000Z,32.4
2018-08-18T16:23:41.000Z,32.4
2018-08-18T16:24:41.000Z,32.4
2018-08-18T16:25:41.000Z,32.4
2018-08-18T16:26:41.000Z,32.4
2018-08-18T16:27:41.000Z,32.5
2018-08-18T16:28:41.000Z,32.5
2018-08-18T16:30:41.000Z,32.5
2018-08-18T16:32:41.000Z,32.5
2018-08-18T16:33:41.000Z,32.5
2018-08-18T16:34:41.000Z,32.5
2018-08-18T16:35:41.000Z,32.6
2018-08-18T16:37:41.000Z,32.6
2018-08-18T16:39:41.000Z,32.6
2018-08-18T16:41:41.000Z,32.5
2018-08-18T16:42:41.000Z,32.4
2018-08-18T16:43:41.000Z,32.4
2018-08-18T16:45:41.000Z,32.3
2018-08-18T16:46:41.000Z,32.3
2018-08-18T16:47:41.000Z,32.3
2018-08-18T16:48:41.000Z,32.4
2018-08-18T16:49:41.000Z,32.4
2018-08-18T16:51:41.000Z,32.5
2018-08-18T16:52:41.000Z,32.5
2018-08-18T16:53:41.000Z,32.5
2018-08-18T16:54:41.000Z,32.6
2018-08-18T16:56:41.000Z,32.6
2018-08-18T16:57:41.000Z,32.6
2018-08-18T16:59:26.000Z,32.6
2018-08-18T17:00:41.000Z,32.6
2018-08-18T17:01:41.000Z,32.6
2018-08-18T17:02:41.000Z,32.7
2018-08-18T17:04:41.000Z,32.7
2018-08-18T17:05:41.000Z,32.7
2018-08-18T17:07:41.000Z,32.7
2018-08-18T17:09:41.000Z,32.6
2018-08-18T17:10:41.000Z,32.6
2018-08-18T17:12:41.000Z,32.6
2018-08-18T17:13:41.000Z,32.7
2018-08-18T17:15:41.000Z,32.6
2018-08-18T17:17:26.000Z,32.7
2018-08-18T17:18:41.000Z,32.6
2018-08-18T17:20:41.000Z,32.5
2018-08-18T17:22:41.000Z,32.5
2018-08-18T17:24:41.000Z,32.5
2018-08-18T17:26:41.000Z,32.4
2018-08-18T17:27:41.000Z,32.4
2018-08-18T17:28:41.000Z,32.4
2018-08-18T17:30:41.000Z,32.4
2018-08-18T17:31:41.000Z,32.4
2018-08-18T17:32:41.000Z,32.5
2018-08-18T17:34:41.000Z,32.5
2018-08-18T17:36:41.000Z,32.5
2018-08-18T17:37:41.000Z,32.5
2018-08-18T17:39:41.000Z,32.5
2018-08-18T17:41:41.000Z,32.5
2018-08-18T17:43:41.000Z,32.5
2018-08-18T17:45:26.000Z,32.5
2018-08-18T17:46:41.000Z,32.4
2018-08-18T17:47:41.000Z,32.4
2018-08-18T17:48:41.000Z,32.5
2018-08-18T17:50:41.000Z,32.5
2018-08-18T17:51:41.000Z,32.5
2018-08-18T17:53:41.000Z,32.5
2018-08-18T17:54:41.000Z,32.5
2018-08-18T17:55:41.000Z,32.5
2018-08-18T17:57:41.000Z,32.6
2018-08-18T17:58:41.000Z,32.6
2018-08-18T18:00:26.000Z,32.6
2018-08-18T18:01:41.000Z,32.5
2018-08-18T18:03:41.000Z,32.5
2018-08-18T18:04:41.000Z,32.5
2018-08-18T18:05:41.000Z,32.5
2018-08-18T18:07:26.000Z,32.5
2018-08-18T18:08:41.000Z,32.4
2018-08-18T18:10:41.000Z,32.4
2018-08-18T18:12:41.000Z,32.3
2018-08-18T18:13:41.000Z,32.3
2018-08-18T18:15:41.000Z,32.3
2018-08-18T18:16:41.000Z,32.2
2018-08-18T18:17:41.000Z,32.3
2018-08-18T18:19:41.000Z,32.3
2018-08-18T18:20:41.000Z,32.3
2018-08-18T18:22:41.000Z,32.3
2018-08-18T18:24:41.000Z,32.3
2018-08-18T18:26:41.000Z,32.3
2018-08-18T18:27:41.000Z,32.3
2018-08-18T18:29:41.000Z,32.3
2018-08-18T18:31:41.000Z,32.2
2018-08-18T18:32:41.000Z,32.2
2018-08-18T18:33:41.000Z,32.2
2018-08-18T18:35:41.000Z,32.2
2018-08-18T18:37:41.000Z,32.1
2018-08-18T18:38:41.000Z,32.1
2018-08-18T18:40:41.000Z,32.2
2018-08-18T18:42:41.000Z,32.2
2018-08-18T18:43:41.000Z,32.2
2018-08-18T18:45:26.000Z,32.2
2018-08-18T18:46:41.000Z,32.2
2018-08-18T18:47:41.000Z,32.2
2018-08-18T18:48:41.000Z,32.2
2018-08-18T18:49:41.000Z,32.2
2018-08-18T18:50:41.000Z,32.3
2018-08-18T18:52:41.000Z,32.3
2018-08-18T18:53:41.000Z,32.3
2018-08-18T18:55:41.000Z,32.3
2018-08-18T18:57:41.000Z,32.2
2018-08-18T18:58:41.000Z,32.2
2018-08-18T18:59:41.000Z,32.2
2018-08-18T19:00:41.000Z,32.2
2018-08-18T19:02:41.000Z,32.2
2018-08-18T19:03:41.000Z,32.2
2018-08-18T19:04:41.000Z,32.3
2018-08-18T19:05:41.000Z,32.3
2018-08-18T19:07:41.000Z,32.3
2018-08-18T19:09:41.000Z,32.2
2018-08-18T19:11:41.000Z,32.1
2018-08-18T19:12:41.000Z,32.1
2018-08-18T19:14:41.000Z,32.1
2018-08-18T19:15:41.000Z,32.1
2018-08-18T19:16:41.000Z,32.2
2018-08-18T19:17:41.000Z,32.2
2018-08-18T19:19:41.000Z,32.1
2018-08-18T19:20:41.000Z,32.1
2018-08-18T19:21:41.000Z,32.1
2018-08-18T19:23:41.000Z,32.1
2018-08-18T19:24:41.000Z,32.1
2018-08-18T19:26:26.000Z,32.1
2018-08-18T19:27:41.000Z,32.1
2018-08-18T19:29:41.000Z,32
2018-08-18T19:31:41.000Z,31.9
2018-08-18T19:33:41.000Z,31.9
2018-08-18T19:35:41.000Z,31.9
2018-08-18T19:37:41.000Z,31.8
2018-08-18T19:39:26.000Z,31.9
2018-08-18T19:40:41.000Z,31.8
2018-08-18T19:41:41.000Z,31.8
2018-08-18T19:43:41.000Z,31.9
2018-08-18T19:44:41.000Z,31.9
2018-08-18T19:45:41.000Z,32
2018-08-18T19:47:41.000Z,32
2018-08-18T19:48:41.000Z,32
2018-08-18T19:49:41.000Z,32
2018-08-18T19:51:41.000Z,31.9
2018-08-18T19:53:41.000Z,31.9
2018-08-18T19:55:41.000Z,31.8
2018-08-18T19:56:41.000Z,31.9
2018-08-18T19:57:41.000Z,31.9
2018-08-18T19:59:41.000Z,32
2018-08-18T20:01:41.000Z,32
2018-08-18T20:03:41.000Z,31.9
2018-08-18T20:04:41.000Z,31.9
2018-08-18T20:05:41.000Z,32
2018-08-18T20:07:41.000Z,32
2018-08-18T20:08:41.000Z,32
2018-08-18T20:10:41.000Z,32
2018-08-18T20:12:41.000Z,31.9
2018-08-18T20:14:41.000Z,31.9
2018-08-18T20:16:41.000Z,31.8
2018-08-18T20:17:41.000Z,31.8
2018-08-18T20:18:41.000Z,31.8
2018-08-18T20:20:41.000Z,31.9
2018-08-18T20:21:41.000Z,31.9
2018-08-18T20:23:41.000Z,32
2018-08-18T20:24:41.000Z,32
2018-08-18T20:25:41.000Z,32
2018-08-18T20:27:41.000Z,32
2018-08-18T20:29:41.000Z,32
2018-08-18T20:30:41.000Z,31.9
2018-08-18T20:32:41.000Z,32
2018-08-18T20:34:26.000Z,31.9
2018-08-18T20:35:41.000Z,31.9
2018-08-18T20:36:41.000Z,31.9
2018-08-18T20:37:41.000Z,32